Amber Lagoon — V7FS4 — position and weather

sailwx.info

Track history (hours):
 
Tides and Currents Weather Stations Pressure Air Temp Water Temp Dewpoint Dewpoint Depression Visibility Wind Speed Wind Dir Waves Ship Positions

Amber Lagoon

Last reported at 2014-Jul-22 18:33 UTC. Time now 2014-Jul-22 19:28 UTC.
Position S 33°52' E 018°26'.

Length 192 m; draft 10.6 m.

Type: Cargo ship. MMSI: 538090116.

Date/timePositionNaut miles runAvg speedWind from/ knotsBaromVisibWave heightAir tempDewpointWater temp
2014-Jul-22 18:33S 33°52' E 018°26'3 3.1
2014-Jul-22 17:33S 33°55' E 018°26'0 0.0
2014-Jul-22 16:33S 33°55' E 018°26'0 0.0
2014-Jul-22 15:33S 33°55' E 018°26'0 0.0
2014-Jul-22 14:32S 33°55' E 018°26'0 0.0
2014-Jul-22 07:11S 33°55' E 018°26'0 0.0
2014-Jul-22 06:32S 33°55' E 018°26'0 0.0
2014-Jul-22 05:32S 33°55' E 018°26'0 0.0
2014-Jul-22 04:32S 33°55' E 018°26'0 0.0
2014-Jul-22 03:32S 33°55' E 018°26'0 0.0
2014-Jul-22 02:32S 33°55' E 018°26'0 0.0
2014-Jul-22 01:32S 33°55' E 018°26'0 0.0
2014-Jul-22 00:32S 33°55' E 018°26'0 0.0
2014-Jul-21 23:32S 33°55' E 018°26'0 0.0
2014-Jul-21 22:32S 33°55' E 018°26'0 0.0
2014-Jul-21 21:32S 33°55' E 018°26'0 0.0
2014-Jul-21 20:32S 33°55' E 018°26'0 0.0
2014-Jul-21 20:17S 33°55' E 018°26'0 0.0
2014-Jul-21 19:20S 33°55' E 018°26'0 0.0
2014-Jul-21 18:32S 33°55' E 018°26'0 0.0
2014-Jul-21 17:32S 33°55' E 018°26'0 0.0
2014-Jul-21 16:32S 33°55' E 018°26'0 0.0
2014-Jul-21 15:32S 33°55' E 018°26'0 0.0
2014-Jul-21 14:32S 33°55' E 018°26'0 0.0
2014-Jul-21 13:32S 33°55' E 018°26'0 0.0
2014-Jul-21 12:32S 33°55' E 018°26'0 0.0
2014-Jul-21 11:32S 33°55' E 018°26'0 0.0
2014-Jul-21 10:29S 33°55' E 018°26'0 0.0
2014-Jul-21 09:31S 33°55' E 018°26'11 0.5
2014-Jul-20 09:08S 34°02' E 018°15'712.3
2014-Jul-20 08:33S 34°09' E 018°16'  
2014-Jul-18 04:30S 33°18' E 027°36'1311.3
2014-Jul-18 03:20S 33°10' E 027°49'1010.2
2014-Jul-18 02:21S 33°04' E 027°58'7312.4
2014-Jul-17 20:29S 32°16' E 029°03'1614.6
2014-Jul-17 19:25S 32°05' E 029°16'13314.9
2014-Jul-17 10:32S 30°22' E 030°54'1313.4
2014-Jul-17 09:33S 30°12' E 031°03'1313.2
2014-Jul-17 08:33S 30°01' E 031°12'1313.4
2014-Jul-17 07:33S 29°50' E 031°22'4013.3
2014-Jul-17 04:33S 29°18' E 031°48'1413.6
2014-Jul-17 03:33S 29°07' E 031°57'1413.7
2014-Jul-17 02:33S 28°56' E 032°07'9 9.1
2014-Jul-17 01:33S 28°48' E 032°03'1 0.3
2014-Jul-16 23:23S 28°47' E 032°02'0 0.0
2014-Jul-16 21:23S 28°47' E 032°02'0 0.0
2014-Jul-16 20:29S 28°47' E 032°02'0 0.0
2014-Jul-16 19:29S 28°47' E 032°02'0 0.0
2014-Jul-16 18:29S 28°47' E 032°02'0 0.0
2014-Jul-16 17:11S 28°47' E 032°02'0 0.0
2014-Jul-16 16:23S 28°47' E 032°02'0 0.0
2014-Jul-16 15:11S 28°47' E 032°02'0 0.0
2014-Jul-16 14:29S 28°47' E 032°02'0 0.0
2014-Jul-16 13:29S 28°47' E 032°02'0 0.0
2014-Jul-16 12:23S 28°47' E 032°02'0 0.0
2014-Jul-16 05:17S 28°47' E 032°02'  
Track history (hours):
 
Tides and Currents Weather Stations Pressure Air Temp Water Temp Dewpoint Dewpoint Depression Visibility Wind Speed Wind Dir Waves Ship Positions

Amber Lagoon

Last reported at 2014-Jul-22 18:33 UTC. Time now 2014-Jul-22 19:28 UTC.
Position S 33°52' E 018°26'.

Length 192 m; draft 10.6 m.

Type: Cargo ship. MMSI: 538090116.

Date/timePositionNaut miles runAvg speedWind from/ knotsBaromVisibWave heightAir tempDewpointWater temp
2014-Jul-22 18:33S 33°52' E 018°26'3 3.1
2014-Jul-22 17:33S 33°55' E 018°26'0 0.0
2014-Jul-22 16:33S 33°55' E 018°26'0 0.0
2014-Jul-22 15:33S 33°55' E 018°26'0 0.0
2014-Jul-22 14:32S 33°55' E 018°26'0 0.0
2014-Jul-22 07:11S 33°55' E 018°26'0 0.0
2014-Jul-22 06:32S 33°55' E 018°26'0 0.0
2014-Jul-22 05:32S 33°55' E 018°26'0 0.0
2014-Jul-22 04:32S 33°55' E 018°26'0 0.0
2014-Jul-22 03:32S 33°55' E 018°26'0 0.0
2014-Jul-22 02:32S 33°55' E 018°26'0 0.0
2014-Jul-22 01:32S 33°55' E 018°26'0 0.0
2014-Jul-22 00:32S 33°55' E 018°26'0 0.0
2014-Jul-21 23:32S 33°55' E 018°26'0 0.0
2014-Jul-21 22:32S 33°55' E 018°26'0 0.0
2014-Jul-21 21:32S 33°55' E 018°26'0 0.0
2014-Jul-21 20:32S 33°55' E 018°26'0 0.0
2014-Jul-21 20:17S 33°55' E 018°26'0 0.0
2014-Jul-21 19:20S 33°55' E 018°26'0 0.0
2014-Jul-21 18:32S 33°55' E 018°26'0 0.0
2014-Jul-21 17:32S 33°55' E 018°26'0 0.0
2014-Jul-21 16:32S 33°55' E 018°26'0 0.0
2014-Jul-21 15:32S 33°55' E 018°26'0 0.0
2014-Jul-21 14:32S 33°55' E 018°26'0 0.0
2014-Jul-21 13:32S 33°55' E 018°26'0 0.0
2014-Jul-21 12:32S 33°55' E 018°26'0 0.0
2014-Jul-21 11:32S 33°55' E 018°26'0 0.0
2014-Jul-21 10:29S 33°55' E 018°26'0 0.0
2014-Jul-21 09:31S 33°55' E 018°26'11 0.5
2014-Jul-20 09:08S 34°02' E 018°15'712.3
2014-Jul-20 08:33S 34°09' E 018°16'  
2014-Jul-18 04:30S 33°18' E 027°36'1311.3
2014-Jul-18 03:20S 33°10' E 027°49'1010.2
2014-Jul-18 02:21S 33°04' E 027°58'7312.4
2014-Jul-17 20:29S 32°16' E 029°03'1614.6
2014-Jul-17 19:25S 32°05' E 029°16'13314.9
2014-Jul-17 10:32S 30°22' E 030°54'1313.4
2014-Jul-17 09:33S 30°12' E 031°03'1313.2
2014-Jul-17 08:33S 30°01' E 031°12'1313.4
2014-Jul-17 07:33S 29°50' E 031°22'4013.3
2014-Jul-17 04:33S 29°18' E 031°48'1413.6
2014-Jul-17 03:33S 29°07' E 031°57'1413.7
2014-Jul-17 02:33S 28°56' E 032°07'9 9.1
2014-Jul-17 01:33S 28°48' E 032°03'1 0.3
2014-Jul-16 23:23S 28°47' E 032°02'0 0.0
2014-Jul-16 21:23S 28°47' E 032°02'0 0.0
2014-Jul-16 20:29S 28°47' E 032°02'0 0.0
2014-Jul-16 19:29S 28°47' E 032°02'0 0.0
2014-Jul-16 18:29S 28°47' E 032°02'0 0.0
2014-Jul-16 17:11S 28°47' E 032°02'0 0.0
2014-Jul-16 16:23S 28°47' E 032°02'0 0.0
2014-Jul-16 15:11S 28°47' E 032°02'0 0.0
2014-Jul-16 14:29S 28°47' E 032°02'0 0.0
2014-Jul-16 13:29S 28°47' E 032°02'0 0.0
2014-Jul-16 12:23S 28°47' E 032°02'0 0.0
2014-Jul-16 05:17S 28°47' E 032°02'  

Dump ship's entire track history